Time;durP1;ratioP1;P1;durP2;ratioP2;P2;SDS_P1;SDS_P2;PMS_P1;PMS_P2;Temp;Humidity;BMP_temperature;BMP_pressure;BME280_temperature;BME280_humidity;BME280_pressure;Samples;Min_cycle;Max_cycle;Signal;HPM_P1;HPM_P2
2022/01/05 00:00:06;;;;;;;;;3.50;2.75;;;;;7.06;61.78;100278.72;5040174;28;45318;-58
2022/01/05 00:02:32;;;;;;;;;2.00;1.50;;;;;7.05;61.80;100281.34;5022589;28;45397;-58
2022/01/05 00:04:57;;;;;;;;;2.00;2.00;;;;;7.02;62.13;100274.41;5040299;28;45298;-57
2022/01/05 00:07:22;;;;;;;;;3.00;1.00;;;;;6.99;61.91;100277.03;5039936;28;45658;-57
2022/01/05 00:09:48;;;;;;;;;3.25;1.75;;;;;6.97;62.13;100284.03;5040033;28;45218;-58
2022/01/05 00:12:14;;;;;;;;;3.00;1.75;;;;;6.95;61.91;100285.78;5022452;28;45359;-57
2022/01/05 00:14:39;;;;;;;;;2.50;1.00;;;;;6.93;61.90;100287.50;5022344;28;45513;-57
2022/01/05 00:17:05;;;;;;;;;1.75;0.50;;;;;6.93;61.82;100300.56;5040215;28;45527;-57
2022/01/05 00:19:32;;;;;;;;;1.25;1.25;;;;;6.92;61.76;100307.56;5039922;28;46124;-57
2022/01/05 00:21:57;;;;;;;;;4.00;3.00;;;;;6.90;61.84;100303.22;5022215;28;45390;-58
2022/01/05 00:24:22;;;;;;;;;2.00;1.00;;;;;6.86;61.95;100312.81;5040002;28;45245;-58
2022/01/05 00:26:48;;;;;;;;;3.00;2.00;;;;;6.86;61.82;100304.13;5040191;28;45275;-57
2022/01/05 00:29:13;;;;;;;;;3.25;2.00;;;;;6.82;61.52;100319.78;5039807;28;46180;-58
2022/01/05 00:31:39;;;;;;;;;2.00;2.00;;;;;6.78;61.62;100318.09;5052559;28;45419;-58
2022/01/05 00:34:04;;;;;;;;;3.75;2.25;;;;;6.77;61.77;100310.25;5060078;28;45490;-58
2022/01/05 00:36:29;;;;;;;;;2.00;1.00;;;;;6.66;61.63;100295.50;5060040;28;45616;-58
2022/01/05 00:38:54;;;;;;;;;3.25;3.00;;;;;6.73;61.50;100318.97;5040203;28;46256;-57
2022/01/05 00:41:20;;;;;;;;;5.50;2.50;;;;;6.72;61.63;100317.25;5039886;28;45331;-57
2022/01/05 00:43:45;;;;;;;;;2.00;1.00;;;;;6.71;61.02;100315.53;5039910;28;45301;-58
2022/01/05 00:46:11;;;;;;;;;1.75;1.00;;;;;6.66;61.57;100315.53;5034362;28;45348;-57
2022/01/05 00:48:36;;;;;;;;;3.00;1.25;;;;;6.66;61.21;100318.13;5040511;28;45163;-58
2022/01/05 00:51:06;;;;;;;;;3.50;2.25;;;;;6.62;61.32;100335.56;5021938;28;45334;-57
2022/01/05 00:53:33;;;;;;;;;1.00;1.00;;;;;6.59;61.31;100332.97;5039681;28;45324;-57
2022/01/05 00:55:58;;;;;;;;;1.75;1.75;;;;;6.56;61.39;100339.94;5043921;28;45406;-58
2022/01/05 00:58:23;;;;;;;;;4.50;1.00;;;;;6.57;61.12;100333.88;5040239;28;46058;-58
2022/01/05 01:00:49;;;;;;;;;2.75;2.00;;;;;6.58;61.37;100346.91;5025427;28;45439;-57
2022/01/05 01:03:14;;;;;;;;;3.75;1.50;;;;;6.58;61.13;100343.41;5043157;28;45311;-56
2022/01/05 01:05:40;;;;;;;;;0.75;0.00;;;;;6.55;61.24;100346.91;5042974;28;45376;-58
2022/01/05 01:08:05;;;;;;;;;2.25;2.25;;;;;6.54;61.43;100354.75;5042656;28;45332;-57
2022/01/05 01:10:31;;;;;;;;;3.25;2.50;;;;;6.52;61.35;100361.72;5025025;28;45760;-57
2022/01/05 01:12:57;;;;;;;;;4.25;1.25;;;;;6.49;61.39;100363.47;5043213;28;45277;-57
2022/01/05 01:15:22;;;;;;;;;3.50;1.00;;;;;6.49;61.05;100368.69;5043121;28;45419;-58
2022/01/05 01:17:48;;;;;;;;;3.00;1.75;;;;;6.46;61.18;100368.69;5042775;28;46077;-57
2022/01/05 01:20:13;;;;;;;;;4.50;2.25;;;;;6.44;61.23;100375.66;5042965;28;45209;-57
2022/01/05 01:22:39;;;;;;;;;4.50;1.00;;;;;6.41;61.04;100370.44;5042806;28;45356;-57
2022/01/05 01:25:06;;;;;;;;;2.75;2.00;;;;;6.39;61.00;100381.75;5042761;28;45448;-57
2022/01/05 01:27:32;;;;;;;;;1.00;1.00;;;;;6.38;61.13;100380.91;5042646;28;46020;-55
2022/01/05 01:29:57;;;;;;;;;3.00;1.00;;;;;6.37;60.86;100386.13;5042672;28;45253;-57
2022/01/05 01:32:23;;;;;;;;;7.25;1.75;;;;;6.34;61.00;100390.47;5043408;28;46379;-55
2022/01/05 01:34:49;;;;;;;;;5.75;2.25;;;;;6.34;60.74;100400.06;5062922;28;45504;-56
2022/01/05 01:37:14;;;;;;;;;5.50;4.50;;;;;6.32;61.04;100394.81;5056834;28;46969;-56
2022/01/05 01:39:40;;;;;;;;;4.75;2.25;;;;;6.30;61.12;100400.91;5042475;28;45325;-55
2022/01/05 01:42:05;;;;;;;;;2.00;2.00;;;;;6.26;61.26;100404.41;5042692;28;45262;-55
2022/01/05 01:44:31;;;;;;;;;2.00;1.00;;;;;6.28;61.16;100410.50;5042652;28;45238;-57
2022/01/05 01:46:56;;;;;;;;;2.75;2.75;;;;;6.26;60.88;100427.91;5042390;28;46291;-56
2022/01/05 01:49:22;;;;;;;;;5.25;3.00;;;;;6.25;61.12;100427.06;5042525;28;45212;-56
2022/01/05 01:51:47;;;;;;;;;4.50;3.50;;;;;6.23;61.06;100433.16;5042237;28;45241;-56
2022/01/05 01:54:13;;;;;;;;;2.00;2.00;;;;;6.22;60.93;100440.09;5042435;28;45472;-56
2022/01/05 01:56:39;;;;;;;;;1.75;1.75;;;;;6.21;61.05;100440.09;5042204;28;46284;-55
2022/01/05 01:59:05;;;;;;;;;1.25;1.25;;;;;6.20;60.66;100438.34;5042349;28;45182;-56
2022/01/05 02:01:30;;;;;;;;;7.50;2.25;;;;;6.17;60.98;100440.06;5042436;28;45254;-55
2022/01/05 02:03:56;;;;;;;;;2.75;2.00;;;;;6.19;61.06;100442.72;5024322;28;45426;-56
2022/01/05 02:06:22;;;;;;;;;2.75;2.00;;;;;6.21;60.95;100447.91;5041863;28;46413;-56
2022/01/05 02:08:48;;;;;;;;;2.00;2.00;;;;;6.13;61.19;100442.72;5041921;28;45230;-57
2022/01/05 02:11:13;;;;;;;;;1.75;1.75;;;;;6.18;61.11;100456.63;5042243;28;45265;-56
2022/01/05 02:13:40;;;;;;;;;1.00;1.00;;;;;6.16;60.99;100459.25;5042027;28;45316;-56
2022/01/05 02:16:08;;;;;;;;;2.75;1.00;;;;;6.16;61.07;100463.56;5041953;28;45355;-56
2022/01/05 02:21:07;;;;;;;;;4.25;2.00;;;;;6.13;61.14;100464.44;5042031;28;45417;-56
2022/01/05 02:23:34;;;;;;;;;1.00;1.00;;;;;6.11;61.04;100470.53;5041808;28;45279;-56
2022/01/05 02:25:59;;;;;;;;;2.50;1.50;;;;;6.12;60.96;100477.50;5041569;28;46300;-55
2022/01/05 02:28:25;;;;;;;;;1.50;1.50;;;;;6.08;61.16;100471.41;5041815;28;45199;-55
2022/01/05 02:30:54;;;;;;;;;4.00;1.75;;;;;6.07;61.14;100474.03;5047711;28;45794;-56
2022/01/05 02:33:21;;;;;;;;;2.75;2.25;;;;;6.05;61.17;100484.47;5062094;28;45305;-54
2022/01/05 02:35:46;;;;;;;;;4.50;2.00;;;;;6.04;61.06;100485.31;5061800;28;46265;-55
2022/01/05 02:38:12;;;;;;;;;2.25;2.00;;;;;6.01;61.02;100483.59;5048128;28;45246;-55
2022/01/05 02:40:37;;;;;;;;;2.00;2.00;;;;;5.98;61.11;100478.34;5041726;28;45234;-55
2022/01/05 02:43:03;;;;;;;;;4.00;2.25;;;;;5.96;61.25;100471.38;5041946;28;45219;-55
2022/01/05 02:45:28;;;;;;;;;1.75;1.50;;;;;5.97;61.29;100486.16;5041657;28;46207;-55
2022/01/05 02:47:55;;;;;;;;;5.50;3.00;;;;;5.95;61.30;100486.16;5041588;28;45241;-55
2022/01/05 02:50:21;;;;;;;;;2.00;2.00;;;;;5.92;61.04;100480.06;5041695;28;45428;-55
2022/01/05 02:52:46;;;;;;;;;1.25;1.25;;;;;5.91;61.18;100481.81;5041572;28;45463;-56
2022/01/05 02:55:12;;;;;;;;;3.00;1.00;;;;;5.90;61.03;100487.00;5041330;28;45977;-56
2022/01/05 02:57:38;;;;;;;;;2.25;1.00;;;;;5.86;61.11;100489.63;5041533;28;45360;-54
2022/01/05 03:00:09;;;;;;;;;3.75;2.00;;;;;5.81;61.07;100483.53;5041377;28;45273;-55
2022/01/05 03:02:34;;;;;;;;;3.75;3.75;;;;;5.81;61.25;100486.16;5023693;28;45301;-55
2022/01/05 03:05:00;;;;;;;;;2.00;1.25;;;;;5.77;60.87;100483.53;5041014;28;45550;-57
2022/01/05 03:07:26;;;;;;;;;7.00;1.50;;;;;5.77;60.90;100494.81;5041309;28;45375;-55
2022/01/05 03:09:51;;;;;;;;;2.25;1.75;;;;;5.74;61.15;100492.22;5041245;28;45242;-54
2022/01/05 03:12:16;;;;;;;;;1.75;1.25;;;;;5.73;61.08;100507.84;5041324;28;45357;-55
2022/01/05 03:14:42;;;;;;;;;4.50;3.00;;;;;5.70;61.06;100514.81;5041380;28;46250;-55
2022/01/05 03:17:07;;;;;;;;;1.75;1.75;;;;;5.67;61.07;100513.91;5041384;28;45316;-56
2022/01/05 03:19:32;;;;;;;;;2.50;1.25;;;;;5.64;61.12;100522.59;5023361;28;45440;-55
2022/01/05 03:21:58;;;;;;;;;1.25;1.25;;;;;5.63;61.04;100526.06;5040438;28;45393;-55
2022/01/05 03:24:23;;;;;;;;;2.25;1.25;;;;;5.61;61.15;100526.94;5040904;28;46003;-55
2022/01/05 03:26:48;;;;;;;;;6.00;2.50;;;;;5.51;61.03;100513.03;5040982;28;45350;-57
2022/01/05 03:29:14;;;;;;;;;4.25;2.00;;;;;5.55;61.19;100530.41;5041080;28;45289;-55
2022/01/05 03:31:39;;;;;;;;;2.75;1.75;;;;;5.54;61.34;100536.47;5022921;28;45451;-55
2022/01/05 03:34:05;;;;;;;;;2.25;2.00;;;;;5.53;61.10;100539.94;5040770;28;46226;-54
2022/01/05 03:36:31;;;;;;;;;5.00;2.25;;;;;5.52;61.18;100544.31;5030984;28;45898;-54
2022/01/05 03:38:56;;;;;;;;;4.25;2.25;;;;;5.53;61.19;100551.28;5041300;28;45666;-54
2022/01/05 03:41:22;;;;;;;;;2.50;2.00;;;;;5.53;60.95;100550.38;5040814;28;45452;-55
2022/01/05 03:43:47;;;;;;;;;2.25;1.50;;;;;5.50;61.09;100546.03;5040592;28;46286;-55
2022/01/05 03:46:13;;;;;;;;;2.50;1.00;;;;;5.51;60.96;100565.16;5022701;28;45574;-55
2022/01/05 03:48:38;;;;;;;;;2.75;1.25;;;;;5.50;61.05;100566.88;5040743;28;45484;-55
2022/01/05 03:51:04;;;;;;;;;3.00;1.75;;;;;5.49;61.09;100567.75;5040701;28;45214;-54
2022/01/05 03:53:29;;;;;;;;;6.00;1.00;;;;;5.46;61.08;100578.16;5040174;28;45270;-55
2022/01/05 03:55:54;;;;;;;;;3.00;1.75;;;;;5.45;61.31;100579.03;5022671;28;45249;-54
2022/01/05 03:58:20;;;;;;;;;1.50;1.50;;;;;5.44;61.11;100577.28;5040573;28;45198;-54
2022/01/05 04:00:48;;;;;;;;;2.00;1.75;;;;;5.45;61.10;100586.00;5040555;28;45511;-56
2022/01/05 04:03:15;;;;;;;;;1.00;0.75;;;;;5.43;61.00;100588.56;5040280;28;46378;-55
2022/01/05 04:05:41;;;;;;;;;4.25;3.00;;;;;5.39;61.08;100584.22;5040272;28;45278;-55
2022/01/05 04:08:07;;;;;;;;;2.00;1.00;;;;;5.43;61.25;100587.69;5039983;28;45448;-54
2022/01/05 04:10:32;;;;;;;;;4.00;1.50;;;;;5.42;61.25;100596.38;5022326;28;45667;-54
2022/01/05 04:12:58;;;;;;;;;1.00;1.00;;;;;5.42;61.09;100589.44;5040085;28;47303;-54
2022/01/05 04:15:24;;;;;;;;;3.75;2.75;;;;;5.40;61.31;100592.91;5040306;28;45244;-55
2022/01/05 04:17:49;;;;;;;;;4.75;2.00;;;;;5.39;61.13;100596.38;5040281;28;45463;-55
2022/01/05 04:20:15;;;;;;;;;3.25;2.50;;;;;5.40;61.14;100600.72;5040144;28;45226;-55
2022/01/05 04:22:41;;;;;;;;;6.25;2.00;;;;;5.40;61.12;100603.34;5039705;28;46369;-55
2022/01/05 04:25:07;;;;;;;;;3.50;1.00;;;;;5.37;61.07;100598.94;5040065;28;45324;-54
2022/01/05 04:27:32;;;;;;;;;3.50;2.75;;;;;5.36;61.10;100597.25;5040005;28;45495;-55
2022/01/05 04:29:58;;;;;;;;;3.25;2.75;;;;;5.34;61.09;100605.03;5039971;28;45278;-54
2022/01/05 04:32:24;;;;;;;;;2.50;2.50;;;;;5.30;61.37;100597.19;5058541;28;45372;-55
2022/01/05 04:34:49;;;;;;;;;2.75;1.00;;;;;5.31;61.26;100601.56;5059190;28;45311;-54
2022/01/05 04:37:14;;;;;;;;;7.75;3.00;;;;;5.30;61.33;100605.03;5041738;28;45637;-54
2022/01/05 04:39:40;;;;;;;;;5.25;3.75;;;;;5.29;61.37;100604.13;5060046;28;45262;-55
2022/01/05 04:42:05;;;;;;;;;2.75;2.50;;;;;5.27;61.37;100610.19;5059791;28;45304;-55
2022/01/05 04:44:31;;;;;;;;;3.75;2.00;;;;;5.24;61.12;100607.59;5059956;28;45346;-55
2022/01/05 04:46:57;;;;;;;;;3.50;1.00;;;;;5.20;61.45;100614.50;5059830;28;45170;-55
2022/01/05 04:49:22;;;;;;;;;5.25;4.50;;;;;5.20;61.25;100619.72;5041787;28;45372;-55
2022/01/05 04:51:48;;;;;;;;;3.75;3.75;;;;;5.18;61.40;100624.03;5059424;28;46040;-55
2022/01/05 04:54:14;;;;;;;;;3.50;1.75;;;;;5.16;61.64;100625.78;5041749;28;45444;-55
2022/01/05 04:56:39;;;;;;;;;2.00;1.75;;;;;5.12;61.38;100619.69;5059979;28;45221;-56
2022/01/05 04:59:05;;;;;;;;;3.00;3.00;;;;;5.12;61.48;100626.59;5059913;28;45605;-55
2022/01/05 05:01:30;;;;;;;;;5.50;3.25;;;;;5.10;61.37;100629.22;5059759;28;45232;-55
2022/01/05 05:03:55;;;;;;;;;2.50;2.00;;;;;5.03;61.40;100622.22;5059910;28;45294;-55
2022/01/05 05:06:22;;;;;;;;;3.00;3.00;;;;;5.05;61.49;100625.72;5059644;28;45670;-55
2022/01/05 05:08:48;;;;;;;;;3.75;3.25;;;;;5.02;61.39;100630.91;5059406;28;45455;-55
2022/01/05 05:11:13;;;;;;;;;6.00;3.00;;;;;4.99;61.56;100633.47;5059424;28;47423;-55
2022/01/05 05:13:39;;;;;;;;;4.00;2.00;;;;;4.98;61.57;100637.81;5059634;28;45288;-55
2022/01/05 05:16:04;;;;;;;;;7.50;3.50;;;;;4.97;61.17;100637.78;5059615;28;45265;-55
2022/01/05 05:18:30;;;;;;;;;5.50;2.00;;;;;4.98;61.56;100648.25;5059650;28;45473;-55
2022/01/05 05:20:56;;;;;;;;;2.75;2.00;;;;;4.95;61.57;100650.81;5059433;28;46006;-55
2022/01/05 05:23:23;;;;;;;;;3.00;3.00;;;;;4.89;61.51;100645.56;5059368;28;45386;-55
2022/01/05 05:25:48;;;;;;;;;4.00;3.50;;;;;4.88;61.68;100656.84;5059394;28;45265;-56
2022/01/05 05:28:14;;;;;;;;;2.00;2.00;;;;;4.84;61.75;100663.78;5041289;28;45565;-56
2022/01/05 05:30:39;;;;;;;;;5.00;5.00;;;;;4.85;61.53;100670.69;5048144;28;46101;-55
2022/01/05 05:33:04;;;;;;;;;4.00;3.00;;;;;4.85;61.83;100664.63;5039242;28;45324;-55
2022/01/05 05:35:30;;;;;;;;;5.50;2.25;;;;;4.82;61.81;100662.88;5039303;28;45203;-55
2022/01/05 05:37:56;;;;;;;;;2.50;2.50;;;;;4.82;61.33;100665.47;5047742;28;45290;-55
2022/01/05 05:40:22;;;;;;;;;4.50;1.25;;;;;4.74;61.73;100654.09;5020963;28;46121;-54
2022/01/05 05:42:48;;;;;;;;;3.75;3.75;;;;;4.80;61.65;100669.78;5039118;28;45363;-55
2022/01/05 05:45:14;;;;;;;;;3.50;2.00;;;;;4.81;61.72;100681.09;5040539;28;45253;-55
2022/01/05 05:47:39;;;;;;;;;2.00;2.00;;;;;4.80;61.63;100676.75;5042559;28;45499;-55
2022/01/05 05:50:06;;;;;;;;;5.50;2.75;;;;;4.80;61.57;100695.81;5042204;28;46596;-55
2022/01/05 05:52:31;;;;;;;;;4.00;3.25;;;;;4.78;61.74;100689.75;5042272;28;45281;-55
2022/01/05 05:54:58;;;;;;;;;3.25;3.00;;;;;4.77;61.55;100703.63;5042273;28;45233;-56
2022/01/05 05:57:23;;;;;;;;;4.00;3.00;;;;;4.75;61.66;100691.44;5042771;28;45300;-56
2022/01/05 05:59:48;;;;;;;;;3.00;3.00;;;;;4.74;61.79;100689.69;5041966;28;45254;-55
2022/01/05 06:02:14;;;;;;;;;5.50;3.75;;;;;4.73;61.82;100699.25;5042640;28;45255;-55
2022/01/05 06:04:39;;;;;;;;;5.75;3.75;;;;;4.70;61.71;100705.31;5042338;28;45285;-55
2022/01/05 06:07:04;;;;;;;;;2.75;1.75;;;;;4.70;61.80;100704.41;5023940;28;45450;-57
2022/01/05 06:09:30;;;;;;;;;3.00;3.00;;;;;4.70;61.99;100705.31;5041849;28;46057;-56
2022/01/05 06:11:55;;;;;;;;;3.75;2.00;;;;;4.67;61.81;100702.66;5042259;28;45274;-56
2022/01/05 06:14:20;;;;;;;;;5.00;3.00;;;;;4.65;61.77;100698.28;5042277;28;45214;-56
2022/01/05 06:16:46;;;;;;;;;6.25;3.75;;;;;4.66;61.81;100697.44;5040817;28;45440;-56
2022/01/05 06:19:11;;;;;;;;;2.25;2.25;;;;;4.67;62.00;100704.41;5045449;28;45303;-56
2022/01/05 06:21:37;;;;;;;;;8.75;4.00;;;;;4.64;61.94;100705.25;5041754;28;45523;-56
2022/01/05 06:24:02;;;;;;;;;5.00;2.50;;;;;4.61;61.87;100707.81;5041992;28;45392;-56
2022/01/05 06:26:28;;;;;;;;;7.25;3.00;;;;;4.62;61.84;100714.75;5023999;28;45480;-56
2022/01/05 06:28:53;;;;;;;;;3.00;2.00;;;;;4.60;61.71;100713.84;5041754;28;45309;-56
2022/01/05 06:31:19;;;;;;;;;3.25;3.25;;;;;4.60;62.15;100721.66;5051618;28;45350;-56
2022/01/05 06:33:44;;;;;;;;;2.50;2.50;;;;;4.59;62.36;100724.25;5062008;28;45318;-56
2022/01/05 06:36:09;;;;;;;;;2.00;2.00;;;;;4.60;61.81;100731.22;5061994;28;45365;-55
2022/01/05 06:38:35;;;;;;;;;4.50;3.00;;;;;4.59;62.00;100727.75;5045056;28;45400;-56
2022/01/05 06:41:00;;;;;;;;;4.00;4.00;;;;;4.59;62.21;100734.69;5023665;28;45304;-54
2022/01/05 06:43:26;;;;;;;;;3.00;2.00;;;;;4.53;62.02;100725.94;5041842;28;45309;-56
2022/01/05 06:45:51;;;;;;;;;4.25;2.00;;;;;4.55;61.91;100741.56;5041684;28;45328;-56
2022/01/05 06:48:16;;;;;;;;;7.00;6.00;;;;;4.55;62.17;100746.78;5023511;28;48067;-56
2022/01/05 06:50:42;;;;;;;;;5.25;2.75;;;;;4.50;62.37;100731.13;5041558;28;45225;-56
2022/01/05 06:53:08;;;;;;;;;4.25;0.75;;;;;4.52;61.91;100752.81;5041290;28;45165;-55
2022/01/05 06:55:34;;;;;;;;;3.75;3.75;;;;;4.51;62.08;100750.22;5041458;28;45306;-55
2022/01/05 06:57:59;;;;;;;;;2.00;2.00;;;;;4.49;62.10;100764.94;5006005;28;48137;-56
2022/01/05 07:00:26;;;;;;;;;1.00;0.00;;;;;4.49;62.16;100768.44;5041574;28;45210;-55
2022/01/05 07:02:51;;;;;;;;;1.25;1.25;;;;;4.47;61.98;100777.06;5041390;28;45174;-55
2022/01/05 07:05:17;;;;;;;;;4.00;1.75;;;;;4.47;62.32;100772.72;5040991;28;45384;-56
2022/01/05 07:07:42;;;;;;;;;4.00;1.00;;;;;4.45;62.12;100774.44;5022935;28;46330;-56
2022/01/05 07:10:10;;;;;;;;;3.75;2.50;;;;;4.43;62.50;100776.16;5023236;28;45947;-55
2022/01/05 07:12:36;;;;;;;;;4.50;2.25;;;;;4.44;62.24;100767.50;5041349;28;45452;-56
2022/01/05 07:15:03;;;;;;;;;5.00;3.00;;;;;4.43;62.25;100776.16;5041171;28;45251;-55
2022/01/05 07:17:28;;;;;;;;;4.00;2.00;;;;;4.44;62.26;100785.72;5040895;28;46988;-55
2022/01/05 07:19:53;;;;;;;;;5.50;3.50;;;;;4.42;62.26;100782.22;5023326;28;46084;-56
2022/01/05 07:22:19;;;;;;;;;4.25;4.00;;;;;4.42;62.62;100784.81;5023139;28;45310;-55
2022/01/05 07:24:44;;;;;;;;;3.50;2.50;;;;;4.42;62.58;100792.63;5041038;28;45565;-57
2022/01/05 07:27:10;;;;;;;;;4.00;2.75;;;;;4.43;62.62;100796.09;5040746;28;46026;-56
2022/01/05 07:29:35;;;;;;;;;2.00;2.00;;;;;4.42;62.35;100795.22;5040874;28;45400;-57
2022/01/05 07:32:01;;;;;;;;;5.25;3.25;;;;;4.34;62.56;100787.34;5056568;28;45225;-56
2022/01/05 07:34:26;;;;;;;;;3.00;3.00;;;;;4.42;62.45;100804.78;5061122;28;45197;-55
2022/01/05 07:36:51;;;;;;;;;5.50;3.00;;;;;4.40;62.73;100815.13;5058561;28;45977;-56
2022/01/05 07:39:17;;;;;;;;;7.00;2.25;;;;;4.36;62.62;100805.56;5022923;28;45337;-55
2022/01/05 07:41:42;;;;;;;;;6.00;2.00;;;;;4.37;62.48;100815.13;5040869;28;45322;-55
2022/01/05 07:44:08;;;;;;;;;2.50;0.75;;;;;4.34;62.51;100825.47;5022930;28;45537;-56
2022/01/05 07:46:34;;;;;;;;;3.00;1.00;;;;;4.33;62.59;100822.00;5040491;28;46184;-56
2022/01/05 07:49:02;;;;;;;;;4.50;3.00;;;;;4.33;62.55;100821.16;5023088;28;45381;-55
2022/01/05 07:51:29;;;;;;;;;4.00;3.50;;;;;4.33;62.51;100829.81;5040219;28;45381;-55
2022/01/05 07:53:54;;;;;;;;;5.00;1.50;;;;;4.31;62.59;100839.31;5040586;28;45708;-54
2022/01/05 07:56:19;;;;;;;;;3.75;3.50;;;;;4.29;62.95;100837.56;5040204;28;45301;-54
2022/01/05 07:58:45;;;;;;;;;4.00;2.50;;;;;4.26;62.86;100838.38;5040682;28;45302;-55
2022/01/05 08:01:11;;;;;;;;;6.50;3.75;;;;;4.26;63.08;100845.31;5040563;28;45171;-55
2022/01/05 08:03:37;;;;;;;;;6.50;2.50;;;;;4.21;62.88;100835.75;5040382;28;45493;-55
2022/01/05 08:06:04;;;;;;;;;3.25;2.75;;;;;4.23;63.11;100846.16;5053499;28;45515;-56
2022/01/05 08:08:30;;;;;;;;;4.50;2.50;;;;;4.19;62.75;100845.25;5040018;28;45455;-56
2022/01/05 08:10:56;;;;;;;;;6.25;4.50;;;;;4.21;63.04;100853.97;5048225;28;45523;-56
2022/01/05 08:13:22;;;;;;;;;2.75;1.00;;;;;4.20;63.10;100852.19;5022434;28;45720;-58
2022/01/05 08:15:47;;;;;;;;;3.00;3.00;;;;;4.22;63.12;100855.69;5040101;28;45304;-56
2022/01/05 08:18:13;;;;;;;;;4.25;2.50;;;;;4.22;63.00;100857.41;5040204;28;45163;-55
2022/01/05 08:20:38;;;;;;;;;2.75;2.75;;;;;4.22;63.00;100863.47;5022337;28;45247;-56
2022/01/05 08:23:03;;;;;;;;;4.00;2.50;;;;;4.19;62.88;100866.06;5040043;28;45225;-54
2022/01/05 08:25:29;;;;;;;;;4.50;2.75;;;;;4.21;63.25;100874.75;5021879;28;46641;-56
2022/01/05 08:27:55;;;;;;;;;3.00;3.00;;;;;4.23;63.30;100888.66;5022214;28;45273;-53
2022/01/05 08:30:23;;;;;;;;;4.00;3.00;;;;;4.22;63.44;100880.84;5041659;28;45403;-56
2022/01/05 08:32:49;;;;;;;;;3.00;2.00;;;;;4.26;63.17;100881.75;5042149;28;45528;-55
2022/01/05 08:35:17;;;;;;;;;6.00;3.50;;;;;4.27;63.32;100889.56;5041686;28;47095;-55
2022/01/05 08:37:47;;;;;;;;;1.00;1.00;;;;;4.29;63.13;100892.19;5041725;28;45739;-56
2022/01/05 08:40:17;;;;;;;;;6.25;3.00;;;;;4.29;63.14;100881.78;5059775;28;45443;-56
2022/01/05 08:42:43;;;;;;;;;4.00;3.00;;;;;4.33;63.38;100883.59;5059943;28;45280;-55
2022/01/05 08:45:10;;;;;;;;;5.50;1.50;;;;;4.36;63.01;100886.22;5059670;28;46383;-56
2022/01/05 08:47:35;;;;;;;;;2.25;1.25;;;;;4.41;63.37;100886.28;5059702;28;45222;-56
2022/01/05 08:50:01;;;;;;;;;5.50;2.00;;;;;4.41;63.47;100881.94;5059650;28;45259;-55
2022/01/05 08:52:26;;;;;;;;;2.00;2.00;;;;;4.45;63.69;100890.69;5059565;28;45225;-55
2022/01/05 08:54:51;;;;;;;;;3.00;3.00;;;;;4.48;63.22;100904.63;5059591;28;45703;-56
2022/01/05 08:57:18;;;;;;;;;6.25;3.00;;;;;4.51;63.29;100902.03;5041789;28;45422;-55
2022/01/05 08:59:44;;;;;;;;;5.50;3.25;;;;;4.55;63.26;100898.63;5042646;28;45313;-55
2022/01/05 09:02:13;;;;;;;;;2.25;2.25;;;;;4.61;63.36;100907.38;5039542;28;45799;-57
2022/01/05 09:04:39;;;;;;;;;2.75;2.75;;;;;4.65;63.47;100898.75;5021305;28;45516;-56
2022/01/05 09:07:04;;;;;;;;;1.25;1.25;;;;;4.70;63.17;100910.09;5038966;28;45252;-56
2022/01/05 09:09:30;;;;;;;;;2.00;2.00;;;;;4.74;63.36;100911.00;5021347;28;45304;-56
2022/01/05 09:11:55;;;;;;;;;2.50;2.50;;;;;4.78;63.33;100908.47;5039539;28;45181;-56
2022/01/05 09:14:21;;;;;;;;;2.00;2.00;;;;;4.82;63.43;100915.47;5039464;28;45345;-58
2022/01/05 09:16:46;;;;;;;;;5.50;3.75;;;;;4.84;63.29;100908.53;5039616;28;45166;-56
2022/01/05 09:19:11;;;;;;;;;3.75;3.75;;;;;4.88;63.50;100906.84;5039327;28;45262;-56
2022/01/05 09:21:37;;;;;;;;;5.50;4.00;;;;;4.93;63.60;100919.91;5042586;28;45362;-55
2022/01/05 09:24:03;;;;;;;;;2.00;2.00;;;;;4.97;63.50;100917.38;5024502;28;46039;-56
2022/01/05 09:26:28;;;;;;;;;2.50;2.50;;;;;5.05;63.51;100918.31;5042773;28;45369;-57
2022/01/05 09:28:54;;;;;;;;;5.00;3.00;;;;;5.13;63.51;100934.06;5042857;28;45303;-56
2022/01/05 09:31:20;;;;;;;;;5.25;3.25;;;;;5.17;63.46;100933.22;5052438;28;45293;-56
2022/01/05 09:33:45;;;;;;;;;3.50;3.50;;;;;5.27;63.53;100933.31;5062776;28;46030;-56
2022/01/05 09:36:30;;;;;;;;;3.00;2.00;;;;;5.29;63.83;100940.28;5062974;28;45311;-56
2022/01/05 09:41:57;;;;;;;;;3.75;1.50;;;;;5.49;63.64;100948.31;5042421;28;45352;-58
2022/01/05 09:44:31;;;;;;;;;2.00;2.00;;;;;5.57;63.91;100947.53;5026727;28;45282;-56
2022/01/05 09:47:09;;;;;;;;;4.00;3.00;;;;;5.67;63.81;100947.66;5057924;28;45758;-56
2022/01/05 09:49:39;;;;;;;;;3.00;3.00;;;;;5.72;64.00;100958.09;5049342;28;45360;-56
2022/01/05 09:52:10;;;;;;;;;1.50;1.50;;;;;5.84;63.75;100949.53;5042283;28;45204;-57
2022/01/05 09:54:42;;;;;;;;;2.75;2.75;;;;;5.93;63.80;100962.63;5023973;28;45548;-57
2022/01/05 09:57:09;;;;;;;;;8.00;4.00;;;;;6.03;63.78;100968.84;5042159;28;45370;-57
2022/01/05 09:59:35;;;;;;;;;7.00;2.00;;;;;6.14;63.62;100980.25;5024250;28;45369;-57
2022/01/05 10:02:05;;;;;;;;;7.50;4.25;;;;;6.20;63.85;100975.94;5042231;28;45285;-56
2022/01/05 10:04:30;;;;;;;;;4.25;3.50;;;;;6.29;63.93;100981.19;5041978;28;45294;-56
2022/01/05 10:06:56;;;;;;;;;2.75;2.75;;;;;6.32;64.02;100968.19;5041588;28;45253;-56
2022/01/05 10:09:22;;;;;;;;;4.50;2.50;;;;;6.41;63.67;100963.03;5041984;28;45456;-56
2022/01/05 10:11:48;;;;;;;;;5.00;2.25;;;;;6.52;63.92;100977.91;5024100;28;45602;-57
2022/01/05 10:14:13;;;;;;;;;5.00;3.00;;;;;6.55;63.60;100973.53;5050061;28;46036;-57
2022/01/05 10:17:04;;;;;;;;;5.00;2.00;;;;;6.64;63.74;100980.56;5042078;28;45438;-57
2022/01/05 10:19:29;;;;;;;;;3.00;2.00;;;;;6.71;63.40;100987.56;5042088;28;45493;-57
2022/01/05 10:21:56;;;;;;;;;4.75;3.00;;;;;6.77;63.51;100994.59;5023788;28;45523;-56
2022/01/05 10:24:44;;;;;;;;;3.25;2.75;;;;;6.83;63.69;100990.25;5007546;28;46001;-57
2022/01/05 10:27:21;;;;;;;;;2.75;2.00;;;;;6.91;63.75;100992.91;5041600;28;45508;-56
2022/01/05 10:29:55;;;;;;;;;3.50;2.75;;;;;6.96;63.73;100987.72;5041962;28;45389;-57
2022/01/05 10:32:21;;;;;;;;;4.00;4.00;;;;;7.02;63.75;100992.97;5058697;28;45469;-57
2022/01/05 10:35:02;;;;;;;;;2.00;2.00;;;;;7.09;63.60;101005.19;5061952;28;45380;-57
2022/01/05 10:37:27;;;;;;;;;3.25;3.25;;;;;7.16;63.45;101001.72;5053893;28;45494;-57
2022/01/05 10:40:14;;;;;;;;;3.00;3.00;;;;;7.25;63.41;101013.97;5041457;28;45333;-55
2022/01/05 10:42:41;;;;;;;;;5.50;3.50;;;;;7.27;63.41;101001.78;5041573;28;45465;-56
2022/01/05 10:45:10;;;;;;;;;3.00;3.00;;;;;7.39;63.44;101008.78;5041346;28;46388;-56
2022/01/05 10:47:36;;;;;;;;;9.50;3.25;;;;;7.43;63.30;101015.78;5041441;28;45341;-56
2022/01/05 10:50:05;;;;;;;;;4.00;2.00;;;;;7.54;63.34;101020.19;5041373;28;45235;-56
2022/01/05 10:52:35;;;;;;;;;3.00;3.00;;;;;7.58;63.41;101011.47;5041296;28;45486;-55
2022/01/05 10:55:18;;;;;;;;;3.75;1.75;;;;;7.62;63.25;101008.88;5041169;28;45185;-58
2022/01/05 10:57:56;;;;;;;;;5.50;4.00;;;;;7.73;63.36;101011.47;5023347;28;45703;-57
2022/01/05 11:00:31;;;;;;;;;4.75;3.25;;;;;7.80;63.26;101015.88;5041454;28;45340;-54
2022/01/05 11:02:57;;;;;;;;;2.75;2.75;;;;;7.86;63.27;101009.78;5041232;28;45345;-58
2022/01/05 11:05:22;;;;;;;;;4.25;3.50;;;;;7.97;63.12;101020.25;5041023;28;46290;-58
2022/01/05 11:07:47;;;;;;;;;3.00;3.00;;;;;8.06;63.21;101015.03;5023009;28;45346;-57
2022/01/05 11:10:18;;;;;;;;;4.25;3.00;;;;;8.16;63.23;101015.03;5041254;28;45479;-57
2022/01/05 11:12:49;;;;;;;;;6.00;4.25;;;;;8.29;63.04;101007.16;5041154;28;45249;-57
2022/01/05 11:15:32;;;;;;;;;2.25;2.00;;;;;8.41;63.06;101015.88;5041060;28;45661;-56
2022/01/05 11:18:12;;;;;;;;;5.00;3.75;;;;;8.53;62.98;101010.66;5048020;28;46499;-56
2022/01/05 11:20:43;;;;;;;;;4.75;1.00;;;;;8.66;63.02;101010.66;5061151;28;45467;-57
2022/01/05 11:23:10;;;;;;;;;4.75;2.25;;;;;8.74;62.94;100996.66;5042831;28;45499;-58
2022/01/05 11:25:37;;;;;;;;;3.75;3.00;;;;;8.83;62.40;101007.97;5060735;28;46274;-57
2022/01/05 11:28:07;;;;;;;;;5.25;3.25;;;;;8.90;62.52;100996.63;5061015;28;45439;-57
2022/01/05 11:30:34;;;;;;;;;3.75;2.00;;;;;9.03;62.16;101008.81;5054290;28;45285;-57
2022/01/05 11:33:00;;;;;;;;;4.50;3.75;;;;;9.14;62.38;101007.88;5060907;28;45417;-57
2022/01/05 11:35:25;;;;;;;;;6.75;3.00;;;;;9.17;62.36;101005.25;5025951;28;45408;-56